createdAt,value
2022-08-26T00:03:02.982Z,19.13
2022-08-26T00:18:21.984Z,19.19
2022-08-26T00:33:28.913Z,19.13
2022-08-26T00:48:37.283Z,19.13
2022-08-26T01:03:44.972Z,19.06
2022-08-26T01:18:50.883Z,18.81
2022-08-26T01:34:02.712Z,18.81
2022-08-26T01:49:09.921Z,18.69
2022-08-26T02:04:21.766Z,18.50
2022-08-26T02:19:31.689Z,18.50
2022-08-26T02:34:37.692Z,18.44
2022-08-26T02:49:47.197Z,18.19
2022-08-26T03:04:58.042Z,18.25
2022-08-26T03:20:10.128Z,18.13
2022-08-26T03:35:16.459Z,18.00
2022-08-26T03:50:24.787Z,17.81
2022-08-26T04:05:32.285Z,17.75
2022-08-26T04:20:38.261Z,17.69
2022-08-26T04:35:45.608Z,17.88
2022-08-26T04:50:53.521Z,17.94
2022-08-26T05:05:59.579Z,17.94
2022-08-26T05:21:06.514Z,18.00
2022-08-26T05:36:15.732Z,18.31
2022-08-26T05:51:25.849Z,18.69
2022-08-26T06:06:34.806Z,19.06
2022-08-26T06:21:42.628Z,19.50
2022-08-26T06:36:49.675Z,19.88
2022-08-26T06:51:59.461Z,20.31
2022-08-26T07:07:05.696Z,20.31
2022-08-26T07:22:15.748Z,20.44
2022-08-26T07:37:23.050Z,20.75
2022-08-26T07:52:31.343Z,21.75
2022-08-26T08:07:38.556Z,21.31
2022-08-26T08:22:50.439Z,21.44
2022-08-26T08:37:57.582Z,21.75
2022-08-26T08:53:12.465Z,22.00
2022-08-26T09:08:23.263Z,22.25
2022-08-26T09:23:29.592Z,22.63
2022-08-26T09:38:36.791Z,22.81
2022-08-26T09:53:55.580Z,23.13
2022-08-26T10:09:08.855Z,23.56
2022-08-26T10:24:21.883Z,23.69
2022-08-26T10:39:36.321Z,23.88
2022-08-26T10:54:47.869Z,23.94
2022-08-26T11:09:53.659Z,24.19
2022-08-26T11:25:15.642Z,24.50
2022-08-26T11:40:28.032Z,24.44
2022-08-26T11:55:37.211Z,24.56
2022-08-26T12:10:43.579Z,24.31
2022-08-26T12:25:49.432Z,24.88
2022-08-26T12:40:55.367Z,25.00
2022-08-26T12:56:04.019Z,25.13
2022-08-26T13:11:13.972Z,25.25
2022-08-26T13:26:20.318Z,25.44
2022-08-26T13:41:29.079Z,25.63
2022-08-26T13:56:36.545Z,25.56
2022-08-26T14:11:53.989Z,24.94
2022-08-26T14:27:01.102Z,24.75
2022-08-26T14:42:09.391Z,24.38
2022-08-26T14:57:17.263Z,24.25
2022-08-26T15:12:23.346Z,24.44
2022-08-26T15:27:29.346Z,24.06
2022-08-26T15:42:35.145Z,23.81
2022-08-26T15:57:40.852Z,23.44
2022-08-26T16:12:48.324Z,23.19
2022-08-26T16:27:54.815Z,23.06
2022-08-26T16:43:01.120Z,23.13
2022-08-26T16:58:07.031Z,22.94
2022-08-26T17:13:12.813Z,22.63
2022-08-26T17:28:30.717Z,22.25
2022-08-26T17:43:37.966Z,22.25
2022-08-26T17:58:51.358Z,21.88
2022-08-26T18:13:58.320Z,21.81
2022-08-26T18:29:04.591Z,21.56
2022-08-26T18:44:13.600Z,21.44
2022-08-26T18:59:19.926Z,21.25
2022-08-26T19:14:37.495Z,20.94
2022-08-26T19:29:43.438Z,20.88
2022-08-26T19:45:06.475Z,20.75
2022-08-26T20:00:16.792Z,20.81
2022-08-26T20:15:24.143Z,20.94
2022-08-26T20:30:30.012Z,20.94
2022-08-26T20:45:36.021Z,21.00
2022-08-26T21:00:42.414Z,20.81
2022-08-26T21:15:48.138Z,20.69
2022-08-26T21:30:53.921Z,20.69
2022-08-26T21:46:02.657Z,20.50
2022-08-26T22:01:11.630Z,20.50
2022-08-26T22:16:18.041Z,20.50
2022-08-26T22:31:27.921Z,20.50
2022-08-26T22:46:45.463Z,20.44
2022-08-26T23:01:51.886Z,20.25
2022-08-26T23:16:57.733Z,20.25
2022-08-26T23:32:03.692Z,20.13
2022-08-26T23:47:10.004Z,20.13
